Courage — WDC6907 — position and weather

sailwx.info

Track history (hours):
 
Tides and Currents Weather Stations Pressure Air Temp Water Temp Dewpoint Dewpoint Depression Visibility Wind Speed Wind Dir Waves Ship Positions

Courage

Owner: Crowley Technical Management, Inc, Jacksonville, FL. More information available from US FCC via Universal Licensing System and Coast Guard Vessel Documentation Center.

Last reported at 2014-Nov-21 05:33 UTC. Time now 2014-Nov-23 07:12 UTC.
Position N 49°59' W 002°48'.

Type: Ship. MMSI: 367063050.

Date/timePositionNaut miles runAvg speedWind from/ knotsBaromVisibWave heightAir tempDewpointWater temp
2014-Nov-21 05:33N 49°59' W 002°48'1614.5
2014-Nov-21 04:26N 50°05' W 002°25'1415.5
2014-Nov-21 03:33N 50°11' W 002°06'3517.5
2014-Nov-21 01:32N 50°27' W 001°17'1615.8
2014-Nov-21 00:33N 50°38' W 000°59'1111.0
2014-Nov-20 23:33N 50°46' W 001°11'9 8.7
2014-Nov-20 22:33N 50°51' W 001°21'2 2.4
2014-Nov-20 21:33N 50°53' W 001°24'0 0.0
2014-Nov-20 20:33N 50°53' W 001°24'0 0.0
2014-Nov-20 19:33N 50°53' W 001°24'0 0.0
2014-Nov-20 18:33N 50°53' W 001°24'0 0.0
2014-Nov-20 17:33N 50°53' W 001°24'0 0.0
2014-Nov-20 16:33N 50°53' W 001°24'0 0.0
2014-Nov-20 15:33N 50°53' W 001°24'0 0.0
2014-Nov-20 14:33N 50°53' W 001°24'0 0.0
2014-Nov-20 13:33N 50°53' W 001°24'0 0.0
2014-Nov-20 12:34N 50°53' W 001°24'0 0.0
2014-Nov-20 11:33N 50°53' W 001°24'0 0.0
2014-Nov-20 10:33N 50°53' W 001°24'0 0.0
2014-Nov-20 09:33N 50°53' W 001°24'0 0.0
2014-Nov-20 08:33N 50°53' W 001°24'0 0.0
2014-Nov-20 07:34N 50°53' W 001°24'0 0.0
2014-Nov-20 06:33N 50°53' W 001°24'0 0.0
2014-Nov-20 05:33N 50°53' W 001°24'0 0.0
2014-Nov-20 04:33N 50°53' W 001°24'0 0.0
2014-Nov-20 03:33N 50°53' W 001°24'0 0.0
2014-Nov-20 02:33N 50°53' W 001°24'0 0.0
2014-Nov-20 01:33N 50°53' W 001°24'0 0.0
2014-Nov-20 00:34N 50°53' W 001°24'0 0.0
2014-Nov-19 23:33N 50°53' W 001°24'0 0.0
2014-Nov-19 22:33N 50°53' W 001°24'0 0.0
2014-Nov-19 21:33N 50°53' W 001°24'0 0.1
2014-Nov-19 20:31N 50°53' W 001°24'0 0.0
2014-Nov-19 19:28N 50°53' W 001°24'0 0.0
2014-Nov-19 18:31N 50°53' W 001°24'0 0.0
2014-Nov-19 17:28N 50°53' W 001°24'0 0.0
2014-Nov-19 16:19N 50°53' W 001°24'0 0.0
2014-Nov-19 15:31N 50°53' W 001°24'0 0.0
2014-Nov-19 14:25N 50°53' W 001°24'0 0.0
2014-Nov-19 13:31N 50°53' W 001°24'0 0.0
2014-Nov-19 12:15N 50°53' W 001°24'0 0.0
2014-Nov-19 11:33N 50°53' W 001°24'0 0.0
2014-Nov-19 10:33N 50°53' W 001°24'0 0.0
2014-Nov-19 09:33N 50°53' W 001°24'0 0.0
2014-Nov-19 08:33N 50°53' W 001°24'0 0.0
2014-Nov-19 07:30N 50°53' W 001°24'0 0.0
2014-Nov-19 06:18N 50°53' W 001°24'0 0.0
2014-Nov-19 05:33N 50°53' W 001°24'0 0.0
2014-Nov-19 04:33N 50°53' W 001°24'0 0.0
2014-Nov-19 03:12N 50°53' W 001°24'0 0.0
2014-Nov-19 02:33N 50°53' W 001°24'0 0.0
2014-Nov-19 01:30N 50°53' W 001°24'0 0.0
2014-Nov-19 00:33N 50°53' W 001°24'0 0.0
2014-Nov-18 23:33N 50°53' W 001°24'0 0.0
2014-Nov-18 22:34N 50°53' W 001°24'4 4.3
2014-Nov-18 21:33N 50°50' W 001°19'1111.2
2014-Nov-18 20:33N 50°44' W 001°04'6 5.8
2014-Nov-18 19:33N 50°38' W 001°03'0 0.1
2014-Nov-18 18:31N 50°38' W 001°03'0 0.1
2014-Nov-18 17:28N 50°38' W 001°03'0 0.2
2014-Nov-18 16:31N 50°38' W 001°03'0 0.0
2014-Nov-18 15:31N 50°38' W 001°03'0 0.2
2014-Nov-18 14:28N 50°38' W 001°03'0 0.0
2014-Nov-18 13:28N 50°38' W 001°03'0 0.1
2014-Nov-18 12:31N 50°38' W 001°03'0 0.0
2014-Nov-18 11:31N 50°38' W 001°03'0 0.0
2014-Nov-18 10:31N 50°38' W 001°03'0 0.0
2014-Nov-18 09:31N 50°38' W 001°03'0 0.0
2014-Nov-18 08:31N 50°38' W 001°03'0 0.0
2014-Nov-18 07:31N 50°38' W 001°03'0 0.0
2014-Nov-18 06:31N 50°38' W 001°03'0 0.1
2014-Nov-18 05:31N 50°38' W 001°03'0 0.0
2014-Nov-18 04:31N 50°38' W 001°03'0 0.1
2014-Nov-18 03:31N 50°38' W 001°03'0 0.0
2014-Nov-18 02:31N 50°38' W 001°03'0 0.0
2014-Nov-18 01:31N 50°38' W 001°03'0 0.1
2014-Nov-18 00:31N 50°38' W 001°03'0 0.0
2014-Nov-17 23:31N 50°38' W 001°03'0 0.0
2014-Nov-17 22:28N 50°38' W 001°03'0 0.0
2014-Nov-17 21:31N 50°38' W 001°03'0 0.0
2014-Nov-17 20:31N 50°38' W 001°03'0 0.0
2014-Nov-17 19:31N 50°38' W 001°03'0 0.0
2014-Nov-17 18:31N 50°38' W 001°03'0 0.2
2014-Nov-17 17:31N 50°38' W 001°03'0 0.0
2014-Nov-17 16:34N 50°38' W 001°03'0 0.0
2014-Nov-17 15:34N 50°38' W 001°03'0 0.0
2014-Nov-17 14:33N 50°38' W 001°03'0 0.2
2014-Nov-17 13:33N 50°38' W 001°03'0 0.0
2014-Nov-17 12:33N 50°38' W 001°03'0 0.0
2014-Nov-17 11:30N 50°38' W 001°03'0 0.0
2014-Nov-17 10:33N 50°38' W 001°03'0 0.0
2014-Nov-17 09:33N 50°38' W 001°03'0 0.1
2014-Nov-17 08:33N 50°38' W 001°03'0 0.0
2014-Nov-17 07:33N 50°38' W 001°03'0 0.0
2014-Nov-17 06:33N 50°38' W 001°03'0 0.1
2014-Nov-17 05:33N 50°38' W 001°03'0 0.0
2014-Nov-17 04:33N 50°38' W 001°03'0 0.0
2014-Nov-17 03:33N 50°38' W 001°03'0 0.0
2014-Nov-17 02:33N 50°38' W 001°03'0 0.1
2014-Nov-17 01:33N 50°38' W 001°03'0 0.0
2014-Nov-17 00:33N 50°38' W 001°03'0 0.0
2014-Nov-16 23:33N 50°38' W 001°03'0 0.0
2014-Nov-16 22:33N 50°38' W 001°03'0 0.0
2014-Nov-16 21:33N 50°38' W 001°03'0 0.0
2014-Nov-16 20:33N 50°38' W 001°03'0 0.0
2014-Nov-16 19:33N 50°38' W 001°03'0 0.0
2014-Nov-16 18:33N 50°38' W 001°03'0 0.0
2014-Nov-16 17:33N 50°38' W 001°03'0 0.1
2014-Nov-16 16:33N 50°38' W 001°03'0 0.1
2014-Nov-16 15:33N 50°38' W 001°03'0 0.0
2014-Nov-16 14:33N 50°38' W 001°03'0 0.0
2014-Nov-16 13:33N 50°38' W 001°03'0 0.1
2014-Nov-16 12:33N 50°38' W 001°03'0 0.0
2014-Nov-16 11:33N 50°38' W 001°03'0 0.0
2014-Nov-16 10:33N 50°38' W 001°03'0 0.0
2014-Nov-16 09:33N 50°38' W 001°03'0 0.0
2014-Nov-16 08:33N 50°38' W 001°03'0 0.0
2014-Nov-16 07:24N 50°38' W 001°03'0 0.0
2014-Nov-16 06:33N 50°38' W 001°03'1 1.3
2014-Nov-16 05:33N 50°37' W 001°02'1211.9
2014-Nov-16 04:34N 50°36' W 000°43'2612.1
2014-Nov-16 02:26N 50°31' W 000°04'1312.3
2014-Nov-16 01:24N 50°34' E 000°16'1113.1
2014-Nov-16 00:33N 50°37' E 000°32'1212.3
2014-Nov-15 23:34N 50°44' E 000°49'1312.5
2014-Nov-15 22:34N 50°52' E 001°04'1312.7
2014-Nov-15 21:33N 50°60' E 001°20'1211.7
2014-Nov-15 20:34N 51°07' E 001°34'1111.1
2014-Nov-15 19:34N 51°15' E 001°47'1110.8
2014-Nov-15 18:33N 51°24' E 001°57'1111.2
2014-Nov-15 17:32N 51°21' E 002°15'1211.4
2014-Nov-15 16:31N 51°23' E 002°33'1313.0
2014-Nov-15 15:33N 51°23' E 002°53'1212.4
2014-Nov-15 14:33N 51°20' E 003°13'0 0.5
2014-Nov-15 13:33N 51°20' E 003°13'1 1.0
2014-Nov-15 12:33N 51°19' E 003°14'0 0.0
2014-Nov-15 11:33N 51°19' E 003°14'0 0.0
2014-Nov-15 10:33N 51°19' E 003°14'0 0.0
2014-Nov-15 09:33N 51°19' E 003°14'0 0.0
2014-Nov-15 08:33N 51°19' E 003°14'0 0.0
2014-Nov-15 07:24N 51°19' E 003°14'0 0.0
2014-Nov-15 06:30N 51°19' E 003°14'0 0.0
2014-Nov-15 05:30N 51°19' E 003°14'0 0.0
2014-Nov-15 04:33N 51°19' E 003°14'0 0.0
2014-Nov-15 03:33N 51°19' E 003°14'0 0.0
2014-Nov-15 02:33N 51°19' E 003°14'0 0.0
2014-Nov-15 01:33N 51°19' E 003°14'0 0.0
2014-Nov-15 00:33N 51°19' E 003°14'0 0.0
2014-Nov-14 23:33N 51°19' E 003°14'0 0.0
2014-Nov-14 22:31N 51°19' E 003°14'1 0.6
2014-Nov-14 20:33N 51°20' E 003°13'5 4.5
2014-Nov-14 19:32N 51°25' E 003°15'1212.3
2014-Nov-14 18:33N 51°26' E 003°34'1111.5
2014-Nov-14 17:33N 51°21' E 003°50'10 9.6
2014-Nov-14 16:33N 51°22' E 004°06'9 9.5
2014-Nov-14 15:34N 51°18' E 004°19'2 2.2
2014-Nov-14 14:33N 51°16' E 004°17'1 0.7
2014-Nov-14 12:33N 51°16' E 004°14'0 0.0
2014-Nov-14 11:31N 51°16' E 004°14'0 0.0
2014-Nov-14 10:31N 51°16' E 004°14'0 0.0
2014-Nov-14 09:31N 51°16' E 004°14'0 0.0
2014-Nov-14 08:31N 51°16' E 004°14'0 0.0
2014-Nov-14 07:31N 51°16' E 004°14'0 0.0
2014-Nov-14 06:28N 51°16' E 004°14'0 0.0
2014-Nov-14 05:31N 51°16' E 004°14'0 0.0
2014-Nov-14 04:31N 51°16' E 004°14'0 0.0
2014-Nov-14 03:31N 51°16' E 004°14'0 0.0
2014-Nov-14 02:31N 51°16' E 004°14'0 0.0
2014-Nov-14 01:28N 51°16' E 004°14'0 0.0
2014-Nov-14 00:31N 51°16' E 004°14'0 0.0
2014-Nov-13 23:31N 51°16' E 004°14'0 0.0
2014-Nov-13 22:31N 51°16' E 004°14'0 0.0
2014-Nov-13 21:31N 51°16' E 004°14'0 0.0
2014-Nov-13 20:31N 51°16' E 004°14'0 0.0
2014-Nov-13 19:31N 51°16' E 004°14'0 0.0
2014-Nov-13 18:31N 51°16' E 004°14'0 0.0
2014-Nov-13 17:31N 51°16' E 004°14'0 0.0
2014-Nov-13 16:34N 51°16' E 004°14'0 0.0
2014-Nov-13 15:33N 51°16' E 004°14'0 0.0
2014-Nov-13 14:33N 51°16' E 004°14'0 0.0
2014-Nov-13 13:33N 51°16' E 004°14'0 0.0
2014-Nov-13 12:33N 51°16' E 004°14'0 0.0
2014-Nov-13 11:33N 51°16' E 004°14'0 0.0
2014-Nov-13 10:33N 51°16' E 004°14'0 0.0
2014-Nov-13 09:33N 51°16' E 004°14'0 0.0
2014-Nov-13 08:33N 51°16' E 004°14'0 0.0
2014-Nov-13 07:33N 51°16' E 004°14'0 0.0
2014-Nov-13 06:33N 51°16' E 004°14'0 0.0
2014-Nov-13 05:33N 51°16' E 004°14'0 0.0
2014-Nov-13 04:33N 51°16' E 004°14'0 0.0
2014-Nov-13 03:33N 51°16' E 004°14'0 0.0
2014-Nov-13 02:30N 51°16' E 004°14'0 0.0
2014-Nov-13 01:30N 51°16' E 004°14'0 0.0
2014-Nov-13 00:34N 51°16' E 004°14'0 0.0
2014-Nov-12 23:33N 51°16' E 004°14'0 0.0
2014-Nov-12 22:34N 51°16' E 004°14'0 0.0
2014-Nov-12 21:33N 51°16' E 004°14'0 0.0
2014-Nov-12 20:33N 51°16' E 004°14'0 0.0
2014-Nov-12 19:33N 51°16' E 004°14'1 1.4
2014-Nov-12 18:34N 51°16' E 004°17'0 0.2
2014-Nov-12 17:34N 51°16' E 004°17'6 5.7
2014-Nov-12 16:34N 51°21' E 004°14'1010.3
2014-Nov-12 15:34N 51°26' E 003°60'1111.0
2014-Nov-12 14:33N 51°24' E 003°43'1111.3
2014-Nov-12 13:33N 51°25' E 003°24'1615.3
2014-Nov-12 12:32N 51°27' E 002°60'1716.0
2014-Nov-12 11:29N 51°41' E 003°14'8 8.7
2014-Nov-12 10:31N 51°50' E 003°15'1212.0
2014-Nov-12 09:33N 52°01' E 003°20'3912.4
2014-Nov-12 06:22N 52°39' E 003°35'1413.0
2014-Nov-12 05:19N 52°50' E 003°49'912.4
2014-Nov-12 04:33N 52°57' E 003°59'1413.9
2014-Nov-12 03:34N 53°06' E 004°17'1613.8
2014-Nov-12 02:25N 53°19' E 004°32'1213.5
2014-Nov-12 01:33N 53°29' E 004°41'1514.9
2014-Nov-12 00:33N 53°35' E 005°05'1413.8
2014-Nov-11 23:33N 53°39' E 005°27'1313.2
2014-Nov-11 22:33N 53°43' E 005°48'1313.4
2014-Nov-11 21:33N 53°48' E 006°09'1513.8
2014-Nov-11 20:26N 53°52' E 006°34'1514.9
2014-Nov-11 19:26N 53°55' E 006°59'1515.4
2014-Nov-11 18:27N 53°59' E 007°24'1212.8
2014-Nov-11 17:34N 53°55' E 007°43'1515.0
2014-Nov-11 16:33N 53°49' E 008°07'1717.5
2014-Nov-11 15:33N 53°37' E 008°28'4 4.5
2014-Nov-11 14:33N 53°34' E 008°33'0 0.4
2014-Nov-11 13:33N 53°35' E 008°33'0 0.0
2014-Nov-11 12:33N 53°35' E 008°33'0 0.0
2014-Nov-11 11:33N 53°35' E 008°33'0 0.0
2014-Nov-11 10:33N 53°35' E 008°33'0 0.0
2014-Nov-11 09:33N 53°35' E 008°33'0 0.0
2014-Nov-11 08:33N 53°35' E 008°33'0 0.0
2014-Nov-11 07:33N 53°35' E 008°33'0 0.0
2014-Nov-11 06:33N 53°35' E 008°33'0 0.0
2014-Nov-11 05:33N 53°35' E 008°33'  
Track history (hours):
 
Tides and Currents Weather Stations Pressure Air Temp Water Temp Dewpoint Dewpoint Depression Visibility Wind Speed Wind Dir Waves Ship Positions

Courage

Owner: Crowley Technical Management, Inc, Jacksonville, FL. More information available from US FCC via Universal Licensing System and Coast Guard Vessel Documentation Center.

Last reported at 2014-Nov-21 05:33 UTC. Time now 2014-Nov-23 07:12 UTC.
Position N 49°59' W 002°48'.

Type: Ship. MMSI: 367063050.

Date/timePositionNaut miles runAvg speedWind from/ knotsBaromVisibWave heightAir tempDewpointWater temp
2014-Nov-21 05:33N 49°59' W 002°48'1614.5
2014-Nov-21 04:26N 50°05' W 002°25'1415.5
2014-Nov-21 03:33N 50°11' W 002°06'3517.5
2014-Nov-21 01:32N 50°27' W 001°17'1615.8
2014-Nov-21 00:33N 50°38' W 000°59'1111.0
2014-Nov-20 23:33N 50°46' W 001°11'9 8.7
2014-Nov-20 22:33N 50°51' W 001°21'2 2.4
2014-Nov-20 21:33N 50°53' W 001°24'0 0.0
2014-Nov-20 20:33N 50°53' W 001°24'0 0.0
2014-Nov-20 19:33N 50°53' W 001°24'0 0.0
2014-Nov-20 18:33N 50°53' W 001°24'0 0.0
2014-Nov-20 17:33N 50°53' W 001°24'0 0.0
2014-Nov-20 16:33N 50°53' W 001°24'0 0.0
2014-Nov-20 15:33N 50°53' W 001°24'0 0.0
2014-Nov-20 14:33N 50°53' W 001°24'0 0.0
2014-Nov-20 13:33N 50°53' W 001°24'0 0.0
2014-Nov-20 12:34N 50°53' W 001°24'0 0.0
2014-Nov-20 11:33N 50°53' W 001°24'0 0.0
2014-Nov-20 10:33N 50°53' W 001°24'0 0.0
2014-Nov-20 09:33N 50°53' W 001°24'0 0.0
2014-Nov-20 08:33N 50°53' W 001°24'0 0.0
2014-Nov-20 07:34N 50°53' W 001°24'0 0.0
2014-Nov-20 06:33N 50°53' W 001°24'0 0.0
2014-Nov-20 05:33N 50°53' W 001°24'0 0.0
2014-Nov-20 04:33N 50°53' W 001°24'0 0.0
2014-Nov-20 03:33N 50°53' W 001°24'0 0.0
2014-Nov-20 02:33N 50°53' W 001°24'0 0.0
2014-Nov-20 01:33N 50°53' W 001°24'0 0.0
2014-Nov-20 00:34N 50°53' W 001°24'0 0.0
2014-Nov-19 23:33N 50°53' W 001°24'0 0.0
2014-Nov-19 22:33N 50°53' W 001°24'0 0.0
2014-Nov-19 21:33N 50°53' W 001°24'0 0.1
2014-Nov-19 20:31N 50°53' W 001°24'0 0.0
2014-Nov-19 19:28N 50°53' W 001°24'0 0.0
2014-Nov-19 18:31N 50°53' W 001°24'0 0.0
2014-Nov-19 17:28N 50°53' W 001°24'0 0.0
2014-Nov-19 16:19N 50°53' W 001°24'0 0.0
2014-Nov-19 15:31N 50°53' W 001°24'0 0.0
2014-Nov-19 14:25N 50°53' W 001°24'0 0.0
2014-Nov-19 13:31N 50°53' W 001°24'0 0.0
2014-Nov-19 12:15N 50°53' W 001°24'0 0.0
2014-Nov-19 11:33N 50°53' W 001°24'0 0.0
2014-Nov-19 10:33N 50°53' W 001°24'0 0.0
2014-Nov-19 09:33N 50°53' W 001°24'0 0.0
2014-Nov-19 08:33N 50°53' W 001°24'0 0.0
2014-Nov-19 07:30N 50°53' W 001°24'0 0.0
2014-Nov-19 06:18N 50°53' W 001°24'0 0.0
2014-Nov-19 05:33N 50°53' W 001°24'0 0.0
2014-Nov-19 04:33N 50°53' W 001°24'0 0.0
2014-Nov-19 03:12N 50°53' W 001°24'0 0.0
2014-Nov-19 02:33N 50°53' W 001°24'0 0.0
2014-Nov-19 01:30N 50°53' W 001°24'0 0.0
2014-Nov-19 00:33N 50°53' W 001°24'0 0.0
2014-Nov-18 23:33N 50°53' W 001°24'0 0.0
2014-Nov-18 22:34N 50°53' W 001°24'4 4.3
2014-Nov-18 21:33N 50°50' W 001°19'1111.2
2014-Nov-18 20:33N 50°44' W 001°04'6 5.8
2014-Nov-18 19:33N 50°38' W 001°03'0 0.1
2014-Nov-18 18:31N 50°38' W 001°03'0 0.1
2014-Nov-18 17:28N 50°38' W 001°03'0 0.2
2014-Nov-18 16:31N 50°38' W 001°03'0 0.0
2014-Nov-18 15:31N 50°38' W 001°03'0 0.2
2014-Nov-18 14:28N 50°38' W 001°03'0 0.0
2014-Nov-18 13:28N 50°38' W 001°03'0 0.1
2014-Nov-18 12:31N 50°38' W 001°03'0 0.0
2014-Nov-18 11:31N 50°38' W 001°03'0 0.0
2014-Nov-18 10:31N 50°38' W 001°03'0 0.0
2014-Nov-18 09:31N 50°38' W 001°03'0 0.0
2014-Nov-18 08:31N 50°38' W 001°03'0 0.0
2014-Nov-18 07:31N 50°38' W 001°03'0 0.0
2014-Nov-18 06:31N 50°38' W 001°03'0 0.1
2014-Nov-18 05:31N 50°38' W 001°03'0 0.0
2014-Nov-18 04:31N 50°38' W 001°03'0 0.1
2014-Nov-18 03:31N 50°38' W 001°03'0 0.0
2014-Nov-18 02:31N 50°38' W 001°03'0 0.0
2014-Nov-18 01:31N 50°38' W 001°03'0 0.1
2014-Nov-18 00:31N 50°38' W 001°03'0 0.0
2014-Nov-17 23:31N 50°38' W 001°03'0 0.0
2014-Nov-17 22:28N 50°38' W 001°03'0 0.0
2014-Nov-17 21:31N 50°38' W 001°03'0 0.0
2014-Nov-17 20:31N 50°38' W 001°03'0 0.0
2014-Nov-17 19:31N 50°38' W 001°03'0 0.0
2014-Nov-17 18:31N 50°38' W 001°03'0 0.2
2014-Nov-17 17:31N 50°38' W 001°03'0 0.0
2014-Nov-17 16:34N 50°38' W 001°03'0 0.0
2014-Nov-17 15:34N 50°38' W 001°03'0 0.0
2014-Nov-17 14:33N 50°38' W 001°03'0 0.2
2014-Nov-17 13:33N 50°38' W 001°03'0 0.0
2014-Nov-17 12:33N 50°38' W 001°03'0 0.0
2014-Nov-17 11:30N 50°38' W 001°03'0 0.0
2014-Nov-17 10:33N 50°38' W 001°03'0 0.0
2014-Nov-17 09:33N 50°38' W 001°03'0 0.1
2014-Nov-17 08:33N 50°38' W 001°03'0 0.0
2014-Nov-17 07:33N 50°38' W 001°03'0 0.0
2014-Nov-17 06:33N 50°38' W 001°03'0 0.1
2014-Nov-17 05:33N 50°38' W 001°03'0 0.0
2014-Nov-17 04:33N 50°38' W 001°03'0 0.0
2014-Nov-17 03:33N 50°38' W 001°03'0 0.0
2014-Nov-17 02:33N 50°38' W 001°03'0 0.1
2014-Nov-17 01:33N 50°38' W 001°03'0 0.0
2014-Nov-17 00:33N 50°38' W 001°03'0 0.0
2014-Nov-16 23:33N 50°38' W 001°03'0 0.0
2014-Nov-16 22:33N 50°38' W 001°03'0 0.0
2014-Nov-16 21:33N 50°38' W 001°03'0 0.0
2014-Nov-16 20:33N 50°38' W 001°03'0 0.0
2014-Nov-16 19:33N 50°38' W 001°03'0 0.0
2014-Nov-16 18:33N 50°38' W 001°03'0 0.0
2014-Nov-16 17:33N 50°38' W 001°03'0 0.1
2014-Nov-16 16:33N 50°38' W 001°03'0 0.1
2014-Nov-16 15:33N 50°38' W 001°03'0 0.0
2014-Nov-16 14:33N 50°38' W 001°03'0 0.0
2014-Nov-16 13:33N 50°38' W 001°03'0 0.1
2014-Nov-16 12:33N 50°38' W 001°03'0 0.0
2014-Nov-16 11:33N 50°38' W 001°03'0 0.0
2014-Nov-16 10:33N 50°38' W 001°03'0 0.0
2014-Nov-16 09:33N 50°38' W 001°03'0 0.0
2014-Nov-16 08:33N 50°38' W 001°03'0 0.0
2014-Nov-16 07:24N 50°38' W 001°03'0 0.0
2014-Nov-16 06:33N 50°38' W 001°03'1 1.3
2014-Nov-16 05:33N 50°37' W 001°02'1211.9
2014-Nov-16 04:34N 50°36' W 000°43'2612.1
2014-Nov-16 02:26N 50°31' W 000°04'1312.3
2014-Nov-16 01:24N 50°34' E 000°16'1113.1
2014-Nov-16 00:33N 50°37' E 000°32'1212.3
2014-Nov-15 23:34N 50°44' E 000°49'1312.5
2014-Nov-15 22:34N 50°52' E 001°04'1312.7
2014-Nov-15 21:33N 50°60' E 001°20'1211.7
2014-Nov-15 20:34N 51°07' E 001°34'1111.1
2014-Nov-15 19:34N 51°15' E 001°47'1110.8
2014-Nov-15 18:33N 51°24' E 001°57'1111.2
2014-Nov-15 17:32N 51°21' E 002°15'1211.4
2014-Nov-15 16:31N 51°23' E 002°33'1313.0
2014-Nov-15 15:33N 51°23' E 002°53'1212.4
2014-Nov-15 14:33N 51°20' E 003°13'0 0.5
2014-Nov-15 13:33N 51°20' E 003°13'1 1.0
2014-Nov-15 12:33N 51°19' E 003°14'0 0.0
2014-Nov-15 11:33N 51°19' E 003°14'0 0.0
2014-Nov-15 10:33N 51°19' E 003°14'0 0.0
2014-Nov-15 09:33N 51°19' E 003°14'0 0.0
2014-Nov-15 08:33N 51°19' E 003°14'0 0.0
2014-Nov-15 07:24N 51°19' E 003°14'0 0.0
2014-Nov-15 06:30N 51°19' E 003°14'0 0.0
2014-Nov-15 05:30N 51°19' E 003°14'0 0.0
2014-Nov-15 04:33N 51°19' E 003°14'0 0.0
2014-Nov-15 03:33N 51°19' E 003°14'0 0.0
2014-Nov-15 02:33N 51°19' E 003°14'0 0.0
2014-Nov-15 01:33N 51°19' E 003°14'0 0.0
2014-Nov-15 00:33N 51°19' E 003°14'0 0.0
2014-Nov-14 23:33N 51°19' E 003°14'0 0.0
2014-Nov-14 22:31N 51°19' E 003°14'1 0.6
2014-Nov-14 20:33N 51°20' E 003°13'5 4.5
2014-Nov-14 19:32N 51°25' E 003°15'1212.3
2014-Nov-14 18:33N 51°26' E 003°34'1111.5
2014-Nov-14 17:33N 51°21' E 003°50'10 9.6
2014-Nov-14 16:33N 51°22' E 004°06'9 9.5
2014-Nov-14 15:34N 51°18' E 004°19'2 2.2
2014-Nov-14 14:33N 51°16' E 004°17'1 0.7
2014-Nov-14 12:33N 51°16' E 004°14'0 0.0
2014-Nov-14 11:31N 51°16' E 004°14'0 0.0
2014-Nov-14 10:31N 51°16' E 004°14'0 0.0
2014-Nov-14 09:31N 51°16' E 004°14'0 0.0
2014-Nov-14 08:31N 51°16' E 004°14'0 0.0
2014-Nov-14 07:31N 51°16' E 004°14'0 0.0
2014-Nov-14 06:28N 51°16' E 004°14'0 0.0
2014-Nov-14 05:31N 51°16' E 004°14'0 0.0
2014-Nov-14 04:31N 51°16' E 004°14'0 0.0
2014-Nov-14 03:31N 51°16' E 004°14'0 0.0
2014-Nov-14 02:31N 51°16' E 004°14'0 0.0
2014-Nov-14 01:28N 51°16' E 004°14'0 0.0
2014-Nov-14 00:31N 51°16' E 004°14'0 0.0
2014-Nov-13 23:31N 51°16' E 004°14'0 0.0
2014-Nov-13 22:31N 51°16' E 004°14'0 0.0
2014-Nov-13 21:31N 51°16' E 004°14'0 0.0
2014-Nov-13 20:31N 51°16' E 004°14'0 0.0
2014-Nov-13 19:31N 51°16' E 004°14'0 0.0
2014-Nov-13 18:31N 51°16' E 004°14'0 0.0
2014-Nov-13 17:31N 51°16' E 004°14'0 0.0
2014-Nov-13 16:34N 51°16' E 004°14'0 0.0
2014-Nov-13 15:33N 51°16' E 004°14'0 0.0
2014-Nov-13 14:33N 51°16' E 004°14'0 0.0
2014-Nov-13 13:33N 51°16' E 004°14'0 0.0
2014-Nov-13 12:33N 51°16' E 004°14'0 0.0
2014-Nov-13 11:33N 51°16' E 004°14'0 0.0
2014-Nov-13 10:33N 51°16' E 004°14'0 0.0
2014-Nov-13 09:33N 51°16' E 004°14'0 0.0
2014-Nov-13 08:33N 51°16' E 004°14'0 0.0
2014-Nov-13 07:33N 51°16' E 004°14'0 0.0
2014-Nov-13 06:33N 51°16' E 004°14'0 0.0
2014-Nov-13 05:33N 51°16' E 004°14'0 0.0
2014-Nov-13 04:33N 51°16' E 004°14'0 0.0
2014-Nov-13 03:33N 51°16' E 004°14'0 0.0
2014-Nov-13 02:30N 51°16' E 004°14'0 0.0
2014-Nov-13 01:30N 51°16' E 004°14'0 0.0
2014-Nov-13 00:34N 51°16' E 004°14'0 0.0
2014-Nov-12 23:33N 51°16' E 004°14'0 0.0
2014-Nov-12 22:34N 51°16' E 004°14'0 0.0
2014-Nov-12 21:33N 51°16' E 004°14'0 0.0
2014-Nov-12 20:33N 51°16' E 004°14'0 0.0
2014-Nov-12 19:33N 51°16' E 004°14'1 1.4
2014-Nov-12 18:34N 51°16' E 004°17'0 0.2
2014-Nov-12 17:34N 51°16' E 004°17'6 5.7
2014-Nov-12 16:34N 51°21' E 004°14'1010.3
2014-Nov-12 15:34N 51°26' E 003°60'1111.0
2014-Nov-12 14:33N 51°24' E 003°43'1111.3
2014-Nov-12 13:33N 51°25' E 003°24'1615.3
2014-Nov-12 12:32N 51°27' E 002°60'1716.0
2014-Nov-12 11:29N 51°41' E 003°14'8 8.7
2014-Nov-12 10:31N 51°50' E 003°15'1212.0
2014-Nov-12 09:33N 52°01' E 003°20'3912.4
2014-Nov-12 06:22N 52°39' E 003°35'1413.0
2014-Nov-12 05:19N 52°50' E 003°49'912.4
2014-Nov-12 04:33N 52°57' E 003°59'1413.9
2014-Nov-12 03:34N 53°06' E 004°17'1613.8
2014-Nov-12 02:25N 53°19' E 004°32'1213.5
2014-Nov-12 01:33N 53°29' E 004°41'1514.9
2014-Nov-12 00:33N 53°35' E 005°05'1413.8
2014-Nov-11 23:33N 53°39' E 005°27'1313.2
2014-Nov-11 22:33N 53°43' E 005°48'1313.4
2014-Nov-11 21:33N 53°48' E 006°09'1513.8
2014-Nov-11 20:26N 53°52' E 006°34'1514.9
2014-Nov-11 19:26N 53°55' E 006°59'1515.4
2014-Nov-11 18:27N 53°59' E 007°24'1212.8
2014-Nov-11 17:34N 53°55' E 007°43'1515.0
2014-Nov-11 16:33N 53°49' E 008°07'1717.5
2014-Nov-11 15:33N 53°37' E 008°28'4 4.5
2014-Nov-11 14:33N 53°34' E 008°33'0 0.4
2014-Nov-11 13:33N 53°35' E 008°33'0 0.0
2014-Nov-11 12:33N 53°35' E 008°33'0 0.0
2014-Nov-11 11:33N 53°35' E 008°33'0 0.0
2014-Nov-11 10:33N 53°35' E 008°33'0 0.0
2014-Nov-11 09:33N 53°35' E 008°33'0 0.0
2014-Nov-11 08:33N 53°35' E 008°33'0 0.0
2014-Nov-11 07:33N 53°35' E 008°33'0 0.0
2014-Nov-11 06:33N 53°35' E 008°33'0 0.0
2014-Nov-11 05:33N 53°35' E 008°33'  

Dump ship's entire track history